Time;durP1;ratioP1;P1;durP2;ratioP2;P2;SDS_P1;SDS_P2;PMS_P1;PMS_P2;Temp;Humidity;BMP_temperature;BMP_pressure;BME280_temperature;BME280_humidity;BME280_pressure;Samples;Min_cycle;Max_cycle;Signal;HPM_P1;HPM_P2
2023/08/23 00:02:20;;;;;;;0.10;0.10;;;21.50;99.90;;;;;;5041706;28;20205;-83
2023/08/23 00:04:47;;;;;;;0.10;0.10;;;21.40;99.90;;;;;;5042672;28;20292;-83
2023/08/23 00:07:13;;;;;;;0.10;0.10;;;21.40;99.90;;;;;;5043522;28;20329;-83
2023/08/23 00:09:38;;;;;;;0.10;0.10;;;21.30;99.90;;;;;;5043592;28;20546;-83
2023/08/23 00:12:05;;;;;;;0.10;0.10;;;21.40;99.90;;;;;;5050938;28;20312;-83
2023/08/23 00:14:30;;;;;;;0.10;0.10;;;21.50;99.90;;;;;;5042783;28;20272;-83
2023/08/23 00:16:56;;;;;;;0.10;0.10;;;21.60;99.90;;;;;;5043961;28;20196;-83
2023/08/23 00:19:21;;;;;;;0.10;0.10;;;21.60;99.90;;;;;;5058182;28;20579;-83
2023/08/23 00:21:47;;;;;;;0.10;0.10;;;21.70;99.90;;;;;;5042316;28;20585;-83
2023/08/23 00:24:13;;;;;;;0.10;0.10;;;21.80;99.90;;;;;;5042016;28;20272;-84
2023/08/23 00:26:38;;;;;;;0.10;0.10;;;21.80;99.90;;;;;;5043874;28;20190;-83
2023/08/23 00:29:04;;;;;;;0.10;0.10;;;21.80;99.90;;;;;;5043375;28;20205;-83
2023/08/23 00:31:29;;;;;;;0.10;0.10;;;21.80;99.90;;;;;;5041476;28;20205;-83
2023/08/23 00:33:55;;;;;;;0.10;0.10;;;21.80;99.90;;;;;;5042244;28;20647;-83
2023/08/23 00:36:20;;;;;;;0.10;0.10;;;21.80;99.90;;;;;;5043539;28;20359;-83
2023/08/23 00:38:46;;;;;;;0.10;0.10;;;21.30;99.90;;;;;;5043665;28;20177;-83
2023/08/23 00:41:11;;;;;;;0.10;0.10;;;21.10;99.90;;;;;;5043471;28;20255;-83
2023/08/23 00:43:37;;;;;;;0.10;0.10;;;21.10;99.90;;;;;;5043671;28;21101;-83
2023/08/23 00:46:02;;;;;;;0.10;0.10;;;21.10;99.90;;;;;;5043246;28;20648;-83
2023/08/23 00:48:28;;;;;;;0.10;0.10;;;21.30;99.90;;;;;;5042191;28;20561;-83
2023/08/23 00:50:54;;;;;;;0.10;0.10;;;21.50;99.90;;;;;;5041218;28;20205;-83
2023/08/23 00:53:20;;;;;;;0.10;0.10;;;21.50;99.90;;;;;;5042287;28;20186;-83
2023/08/23 00:55:46;;;;;;;0.10;0.10;;;21.50;99.90;;;;;;5044115;28;20174;-83
2023/08/23 00:58:12;;;;;;;0.10;0.10;;;21.60;99.90;;;;;;5042073;28;20552;-83
2023/08/23 01:00:40;;;;;;;0.10;0.10;;;21.60;99.90;;;;;;5042290;28;20178;-84
2023/08/23 01:03:06;;;;;;;0.10;0.10;;;21.70;99.90;;;;;;5054667;28;20669;-83
2023/08/23 01:06:05;;;;;;;0.10;0.10;;;21.70;99.90;;;;;;5046204;28;20182;-83
2023/08/23 01:08:49;;;;;;;0.10;0.10;;;21.70;99.90;;;;;;5045535;28;20202;-83
2023/08/23 01:11:29;;;;;;;0.10;0.10;;;21.60;99.90;;;;;;5061494;28;20255;-83
2023/08/23 01:14:13;;;;;;;0.10;0.10;;;21.40;99.90;;;;;;5047146;28;20189;-83
2023/08/23 01:16:40;;;;;;;0.10;0.10;;;21.00;99.90;;;;;;5061199;28;20186;-83
2023/08/23 01:19:45;;;;;;;0.10;0.10;;;20.80;99.90;;;;;;5045657;28;20648;-83
2023/08/23 01:22:18;;;;;;;0.10;0.10;;;20.90;99.90;;;;;;5033138;28;20217;-83
2023/08/23 01:24:44;;;;;;;0.10;0.10;;;20.90;99.90;;;;;;5046685;28;20263;-83
2023/08/23 01:27:10;;;;;;;0.10;0.10;;;21.00;99.90;;;;;;5046385;28;20287;-83
2023/08/23 01:29:36;;;;;;;0.10;0.10;;;20.90;99.90;;;;;;5047419;28;20210;-83
2023/08/23 01:32:23;;;;;;;0.10;0.10;;;20.80;99.90;;;;;;5045953;28;20259;-83
2023/08/23 01:34:56;;;;;;;0.10;0.10;;;20.70;99.90;;;;;;5062271;28;20181;-83
2023/08/23 01:37:23;;;;;;;0.10;0.10;;;20.50;99.90;;;;;;5061464;28;20213;-83
2023/08/23 01:39:52;;;;;;;0.10;0.10;;;20.60;99.90;;;;;;5044579;28;20186;-83
2023/08/23 01:42:18;;;;;;;0.10;0.10;;;20.60;99.90;;;;;;5047213;28;20212;-83
2023/08/23 01:44:43;;;;;;;0.10;0.10;;;20.70;99.90;;;;;;5046652;28;20251;-83
2023/08/23 01:47:09;;;;;;;0.10;0.10;;;20.70;99.90;;;;;;5045454;28;20206;-83
2023/08/23 01:49:35;;;;;;;0.10;0.10;;;20.60;99.90;;;;;;5044638;28;20205;-83
2023/08/23 01:52:00;;;;;;;0.10;0.10;;;20.50;99.90;;;;;;5045839;28;20220;-83
2023/08/23 01:54:26;;;;;;;0.10;0.10;;;20.30;99.90;;;;;;5045302;28;20701;-83
2023/08/23 01:56:51;;;;;;;0.10;0.10;;;20.20;99.90;;;;;;5044455;28;20272;-83
2023/08/23 01:59:17;;;;;;;0.10;0.10;;;20.40;99.90;;;;;;5045757;28;20186;-83
2023/08/23 02:01:42;;;;;;;0.10;0.10;;;20.50;99.90;;;;;;5044679;28;20862;-83
2023/08/23 02:04:08;;;;;;;0.10;0.10;;;20.40;99.90;;;;;;5044499;28;20193;-83
2023/08/23 02:06:33;;;;;;;0.10;0.10;;;20.40;99.90;;;;;;5046108;28;20260;-83
2023/08/23 02:08:59;;;;;;;0.10;0.10;;;20.50;99.90;;;;;;5045123;28;20294;-83
2023/08/23 02:11:24;;;;;;;0.10;0.10;;;20.50;99.90;;;;;;5044241;28;20212;-83
2023/08/23 02:13:50;;;;;;;0.10;0.10;;;20.30;99.90;;;;;;5044071;28;20190;-83
2023/08/23 02:16:15;;;;;;;0.10;0.10;;;20.40;99.90;;;;;;5044752;28;20208;-83
2023/08/23 02:18:41;;;;;;;0.10;0.10;;;20.50;99.90;;;;;;5046151;28;20209;-83
2023/08/23 02:21:06;;;;;;;0.10;0.10;;;20.60;99.90;;;;;;5043966;28;20251;-83
2023/08/23 02:23:32;;;;;;;0.10;0.10;;;20.60;99.90;;;;;;5044466;28;20186;-83
2023/08/23 02:25:57;;;;;;;0.10;0.10;;;20.60;99.90;;;;;;5045690;28;20598;-82
2023/08/23 02:28:23;;;;;;;0.10;0.10;;;20.50;99.90;;;;;;5061816;28;20621;-83
2023/08/23 02:30:48;;;;;;;0.10;0.10;;;20.40;99.90;;;;;;5043411;28;20229;-83
2023/08/23 02:33:14;;;;;;;0.10;0.10;;;20.40;99.90;;;;;;5043924;28;20177;-83
2023/08/23 02:35:46;;;;;;;1.60;1.60;;;20.50;99.90;;;;;;5045377;28;20190;-83
2023/08/23 02:38:13;;;;;;;0.10;0.10;;;20.50;99.90;;;;;;5061215;28;20170;-83
2023/08/23 02:40:42;;;;;;;0.10;0.10;;;20.50;99.90;;;;;;5043821;28;20549;-83
2023/08/23 02:43:08;;;;;;;0.10;0.10;;;20.60;99.90;;;;;;5044036;28;20193;-83
2023/08/23 02:45:40;;;;;;;0.10;0.10;;;20.70;99.90;;;;;;5044865;28;20904;-83
2023/08/23 02:48:10;;;;;;;0.10;0.10;;;20.60;99.90;;;;;;5044464;28;20182;-83
2023/08/23 02:50:36;;;;;;;0.10;0.10;;;20.60;99.90;;;;;;5052378;28;21122;-83
2023/08/23 02:53:01;;;;;;;0.10;0.10;;;20.60;99.90;;;;;;5060044;28;20232;-83
2023/08/23 02:55:27;;;;;;;0.10;0.10;;;20.60;99.90;;;;;;5044131;28;20251;-83
2023/08/23 02:57:52;;;;;;;0.10;0.10;;;20.60;99.90;;;;;;5044391;28;20194;-83
2023/08/23 03:00:18;;;;;;;0.10;0.10;;;20.50;99.90;;;;;;5045117;28;20182;-84
2023/08/23 03:02:44;;;;;;;0.10;0.10;;;20.40;99.90;;;;;;5043860;28;20201;-83
2023/08/23 03:05:09;;;;;;;0.10;0.10;;;20.30;99.90;;;;;;5043676;28;20190;-83
2023/08/23 03:07:35;;;;;;;0.10;0.10;;;20.40;99.90;;;;;;5043794;28;20202;-83
2023/08/23 03:10:00;;;;;;;0.10;0.10;;;20.40;99.90;;;;;;5038589;28;21255;-83
2023/08/23 03:12:26;;;;;;;0.10;0.10;;;20.40;99.90;;;;;;5041951;28;20292;-82
2023/08/23 03:14:51;;;;;;;0.10;0.10;;;20.40;99.90;;;;;;5043816;28;20219;-83
2023/08/23 03:17:17;;;;;;;0.10;0.10;;;20.30;99.90;;;;;;5043376;28;20260;-83
2023/08/23 03:19:42;;;;;;;0.20;0.20;;;20.30;99.90;;;;;;5042376;28;20197;-83
2023/08/23 03:22:08;;;;;;;0.10;0.10;;;20.40;99.90;;;;;;5043734;28;20201;-83
2023/08/23 03:24:33;;;;;;;0.10;0.10;;;20.40;99.90;;;;;;5045346;28;21267;-83
2023/08/23 03:26:59;;;;;;;0.10;0.10;;;20.40;99.90;;;;;;5043283;28;20209;-84
2023/08/23 03:29:24;;;;;;;0.10;0.10;;;20.40;99.90;;;;;;5044182;28;20270;-84
2023/08/23 03:31:50;;;;;;;0.10;0.10;;;20.40;99.90;;;;;;5045573;28;20275;-83
2023/08/23 03:34:16;;;;;;;0.10;0.10;;;20.40;99.90;;;;;;5042942;28;20207;-83
2023/08/23 03:36:41;;;;;;;0.10;0.10;;;20.40;99.90;;;;;;5044415;28;20218;-83
2023/08/23 03:39:07;;;;;;;0.10;0.10;;;20.40;99.90;;;;;;5044895;28;20197;-83
2023/08/23 03:41:32;;;;;;;0.10;0.10;;;20.40;99.90;;;;;;5043749;28;20219;-83
2023/08/23 03:43:58;;;;;;;0.10;0.10;;;20.40;99.90;;;;;;5061289;28;20276;-83
2023/08/23 03:46:24;;;;;;;0.10;0.10;;;20.40;99.90;;;;;;5044953;28;20189;-83
2023/08/23 03:48:50;;;;;;;0.10;0.10;;;20.40;99.90;;;;;;5043638;28;20201;-83
2023/08/23 03:51:15;;;;;;;0.10;0.10;;;20.30;99.90;;;;;;5043003;28;20357;-83
2023/08/23 03:53:41;;;;;;;0.10;0.10;;;20.30;99.90;;;;;;5042711;28;20190;-83
2023/08/23 03:56:08;;;;;;;0.10;0.10;;;20.30;99.90;;;;;;5044269;28;20288;-83
2023/08/23 03:58:34;;;;;;;0.10;0.10;;;20.20;99.90;;;;;;5041021;28;20228;-83
2023/08/23 04:01:00;;;;;;;0.10;0.10;;;20.20;99.90;;;;;;5040907;28;20214;-84
2023/08/23 04:03:25;;;;;;;0.10;0.10;;;20.20;99.90;;;;;;5043634;28;20190;-83
2023/08/23 04:05:51;;;;;;;0.10;0.10;;;20.20;99.90;;;;;;5042694;28;20200;-83
2023/08/23 04:08:17;;;;;;;0.10;0.10;;;20.20;99.90;;;;;;5041496;28;20249;-83
2023/08/23 04:10:49;;;;;;;0.20;0.20;;;20.20;99.90;;;;;;5043979;28;20248;-83
2023/08/23 04:13:16;;;;;;;0.10;0.10;;;20.20;99.90;;;;;;5057220;28;20181;-83
2023/08/23 04:15:45;;;;;;;0.10;0.10;;;20.10;99.90;;;;;;5053219;28;20213;-83
2023/08/23 04:18:10;;;;;;;0.10;0.10;;;20.10;99.90;;;;;;5037989;28;20209;-83
2023/08/23 04:20:37;;;;;;;0.10;0.10;;;20.10;99.90;;;;;;5056708;28;20224;-83
2023/08/23 04:23:03;;;;;;;0.10;0.10;;;20.10;99.90;;;;;;5043842;28;20759;-83
2023/08/23 04:25:29;;;;;;;0.10;0.10;;;20.00;99.90;;;;;;5044152;28;20193;-84
2023/08/23 04:27:54;;;;;;;0.10;0.10;;;20.00;99.90;;;;;;5042276;28;20185;-83
2023/08/23 04:30:20;;;;;;;0.10;0.10;;;20.00;99.90;;;;;;5042318;28;20197;-84
2023/08/23 04:32:45;;;;;;;0.10;0.10;;;20.10;99.90;;;;;;5049226;28;20309;-85
2023/08/23 04:35:11;;;;;;;0.10;0.10;;;20.10;99.90;;;;;;5039849;28;20182;-84
2023/08/23 04:37:37;;;;;;;0.10;0.10;;;20.10;99.90;;;;;;5042737;28;20192;-85
2023/08/23 04:40:04;;;;;;;0.10;0.10;;;20.20;99.90;;;;;;5045466;28;20193;-84
2023/08/23 04:42:31;;;;;;;0.10;0.10;;;20.10;99.90;;;;;;5045804;28;20245;-84
2023/08/23 04:44:59;;;;;;;0.10;0.10;;;20.00;99.90;;;;;;5046844;28;20189;-85
2023/08/23 04:47:25;;;;;;;0.10;0.10;;;20.00;99.90;;;;;;5047599;28;20186;-85
2023/08/23 04:49:50;;;;;;;0.10;0.10;;;20.10;99.90;;;;;;5044209;28;20205;-84
2023/08/23 04:52:16;;;;;;;0.10;0.10;;;20.20;99.90;;;;;;5044920;28;20485;-85
2023/08/23 04:54:41;;;;;;;0.10;0.10;;;20.20;99.90;;;;;;5045574;28;20273;-85
2023/08/23 04:57:07;;;;;;;0.10;0.10;;;20.20;99.90;;;;;;5045916;28;21064;-84
2023/08/23 04:59:32;;;;;;;0.10;0.10;;;20.00;99.90;;;;;;5047687;28;20185;-85
2023/08/23 05:01:58;;;;;;;0.10;0.10;;;20.10;99.90;;;;;;5046991;28;20263;-85
2023/08/23 05:04:23;;;;;;;0.10;0.10;;;19.80;99.90;;;;;;5044208;28;20186;-84
2023/08/23 05:06:49;;;;;;;0.10;0.10;;;19.60;99.90;;;;;;5044912;28;20994;-84
2023/08/23 05:09:14;;;;;;;0.10;0.10;;;19.50;99.90;;;;;;5045593;28;20554;-86
2023/08/23 05:11:40;;;;;;;0.10;0.10;;;19.50;99.90;;;;;;5044664;28;20213;-86
2023/08/23 05:14:06;;;;;;;0.10;0.10;;;19.30;99.90;;;;;;5046474;28;20185;-85
2023/08/23 05:16:31;;;;;;;0.10;0.10;;;19.40;99.90;;;;;;5049394;28;20181;-84
2023/08/23 05:18:57;;;;;;;0.10;0.10;;;19.40;99.90;;;;;;5046604;28;20247;-85
2023/08/23 05:21:22;;;;;;;0.10;0.10;;;19.40;99.90;;;;;;5056605;28;20213;-84
2023/08/23 05:23:48;;;;;;;0.10;0.10;;;19.50;99.90;;;;;;5046653;28;20726;-83
2023/08/23 05:26:14;;;;;;;0.10;0.10;;;19.50;99.90;;;;;;5049260;28;20718;-83
2023/08/23 05:28:39;;;;;;;0.10;0.10;;;19.40;99.90;;;;;;5046600;28;20186;-85
2023/08/23 05:31:05;;;;;;;0.10;0.10;;;19.50;99.90;;;;;;5046210;28;20737;-86
2023/08/23 05:33:32;;;;;;;0.10;0.10;;;19.60;99.90;;;;;;5059585;28;20193;-84
2023/08/23 05:35:58;;;;;;;0.10;0.10;;;19.90;99.90;;;;;;5044336;28;20255;-85
2023/08/23 05:38:24;;;;;;;0.10;0.10;;;20.00;99.90;;;;;;5046025;28;20643;-85
2023/08/23 05:40:51;;;;;;;0.10;0.10;;;20.00;99.90;;;;;;5043620;28;20300;-84
2023/08/23 05:43:17;;;;;;;0.10;0.10;;;20.00;99.90;;;;;;5044814;28;20673;-84
2023/08/23 05:45:46;;;;;;;0.10;0.10;;;20.20;99.90;;;;;;5045070;28;20186;-84
2023/08/23 05:48:13;;;;;;;0.10;0.10;;;20.30;99.90;;;;;;5046344;28;20183;-85
2023/08/23 05:50:39;;;;;;;0.10;0.10;;;20.50;99.90;;;;;;5043756;28;20201;-84
2023/08/23 05:53:09;;;;;;;0.10;0.10;;;20.60;99.90;;;;;;5046112;28;20197;-84
2023/08/23 05:55:35;;;;;;;0.10;0.10;;;20.60;99.90;;;;;;5045665;28;20180;-84
2023/08/23 05:58:01;;;;;;;0.10;0.10;;;20.60;99.90;;;;;;5045968;28;20182;-84
2023/08/23 06:00:27;;;;;;;0.10;0.10;;;20.80;99.90;;;;;;5044686;28;20178;-84
2023/08/23 06:02:52;;;;;;;0.10;0.10;;;21.10;99.90;;;;;;5061908;28;20210;-85
2023/08/23 06:05:18;;;;;;;0.10;0.10;;;21.40;99.90;;;;;;5046775;28;20186;-85
2023/08/23 06:07:44;;;;;;;0.10;0.10;;;21.40;99.90;;;;;;5046365;28;20197;-84
2023/08/23 06:10:10;;;;;;;0.10;0.10;;;21.60;99.90;;;;;;5044305;28;20286;-84
2023/08/23 06:12:36;;;;;;;0.10;0.10;;;21.80;99.90;;;;;;5045272;28;20234;-85
2023/08/23 06:15:02;;;;;;;0.10;0.10;;;21.90;99.90;;;;;;5058255;28;20206;-84
2023/08/23 06:17:28;;;;;;;0.10;0.10;;;21.80;99.90;;;;;;5042052;28;20184;-84
2023/08/23 06:19:54;;;;;;;0.10;0.10;;;21.90;99.90;;;;;;5043748;28;20610;-84
2023/08/23 06:22:19;;;;;;;0.10;0.10;;;22.10;99.90;;;;;;5042648;28;20205;-84
2023/08/23 06:24:45;;;;;;;0.10;0.10;;;22.00;99.90;;;;;;5048295;28;20177;-84
2023/08/23 06:27:12;;;;;;;0.10;0.10;;;22.30;99.90;;;;;;5046059;28;20184;-86
2023/08/23 06:29:41;;;;;;;0.10;0.10;;;22.40;99.90;;;;;;5061479;28;20216;-86
2023/08/23 06:32:09;;;;;;;0.10;0.10;;;22.60;99.90;;;;;;5046797;28;20205;-84
2023/08/23 06:34:35;;;;;;;0.10;0.10;;;22.80;99.90;;;;;;5044633;28;20603;-85
2023/08/23 06:37:01;;;;;;;0.10;0.10;;;22.80;99.90;;;;;;5043573;28;20273;-85
2023/08/23 06:39:26;;;;;;;0.10;0.10;;;22.60;99.90;;;;;;5044172;28;20285;-85
2023/08/23 06:41:52;;;;;;;0.10;0.10;;;22.50;99.90;;;;;;5041497;28;20209;-85
2023/08/23 06:44:17;;;;;;;0.10;0.10;;;22.60;99.90;;;;;;5042820;28;20193;-85
2023/08/23 06:46:43;;;;;;;0.10;0.10;;;22.90;99.90;;;;;;5044119;28;20190;-85
2023/08/23 06:49:08;;;;;;;0.10;0.10;;;23.20;99.90;;;;;;5044536;28;20441;-85
2023/08/23 06:51:34;;;;;;;0.10;0.10;;;23.20;99.90;;;;;;5041741;28;20201;-85
2023/08/23 06:53:59;;;;;;;0.10;0.10;;;23.40;99.90;;;;;;5042574;28;20197;-85
2023/08/23 06:56:26;;;;;;;0.10;0.10;;;23.60;99.90;;;;;;5043456;28;20188;-85
2023/08/23 06:58:52;;;;;;;0.10;0.10;;;23.80;99.90;;;;;;5041743;28;20186;-84
2023/08/23 07:01:17;;;;;;;0.10;0.10;;;23.70;99.90;;;;;;5041351;28;20212;-83
2023/08/23 07:03:44;;;;;;;0.10;0.10;;;23.50;99.90;;;;;;5045463;28;20183;-83
2023/08/23 07:06:11;;;;;;;0.10;0.10;;;23.70;99.90;;;;;;5042969;28;20189;-84
2023/08/23 07:25:27;;;;;;;0.10;0.10;;;23.90;99.90;;;;;;5036731;28;20287;-84
2023/08/23 07:27:53;;;;;;;0.10;0.10;;;24.20;99.90;;;;;;5041912;28;20225;-83
2023/08/23 07:30:18;;;;;;;0.10;0.10;;;24.30;99.90;;;;;;5043864;28;20284;-83
2023/08/23 07:32:44;;;;;;;0.10;0.10;;;24.70;99.90;;;;;;5043148;28;20242;-84
2023/08/23 07:35:09;;;;;;;0.10;0.10;;;25.00;99.90;;;;;;5042964;28;20185;-83
2023/08/23 07:37:35;;;;;;;0.10;0.10;;;25.20;99.90;;;;;;5040643;28;20182;-83
2023/08/23 07:40:00;;;;;;;0.10;0.10;;;25.40;99.90;;;;;;5040813;28;20192;-83
2023/08/23 07:42:27;;;;;;;0.10;0.10;;;25.70;99.90;;;;;;5058002;28;20234;-83
2023/08/23 07:44:53;;;;;;;0.10;0.10;;;25.90;99.90;;;;;;5059460;28;20218;-83
2023/08/23 07:47:18;;;;;;;0.10;0.10;;;26.00;99.90;;;;;;5043678;28;20228;-83
2023/08/23 07:49:44;;;;;;;0.10;0.10;;;25.80;99.90;;;;;;5042769;28;20211;-83
2023/08/23 07:52:09;;;;;;;0.10;0.10;;;25.60;99.90;;;;;;5041814;28;20220;-83
2023/08/23 07:54:35;;;;;;;0.10;0.10;;;25.50;99.90;;;;;;5042778;28;20208;-83
2023/08/23 07:57:00;;;;;;;0.10;0.10;;;25.80;99.90;;;;;;5039522;28;20185;-83
2023/08/23 07:59:26;;;;;;;0.10;0.10;;;26.20;99.90;;;;;;5041802;28;21293;-84
2023/08/23 08:01:51;;;;;;;0.10;0.10;;;26.00;99.90;;;;;;5040289;28;20202;-84
2023/08/23 08:04:17;;;;;;;0.10;0.10;;;26.10;99.90;;;;;;5042959;28;20216;-83
2023/08/23 08:06:43;;;;;;;0.10;0.10;;;26.50;99.90;;;;;;5042687;28;20553;-84
2023/08/23 08:09:08;;;;;;;0.10;0.10;;;26.60;99.90;;;;;;5044459;28;20185;-84
2023/08/23 08:11:34;;;;;;;0.10;0.10;;;26.90;99.90;;;;;;5058488;28;20213;-84
2023/08/23 08:13:59;;;;;;;0.10;0.10;;;26.90;99.90;;;;;;5040461;28;20212;-85
2023/08/23 08:16:25;;;;;;;0.10;0.10;;;26.90;99.90;;;;;;5042111;28;20204;-84
2023/08/23 08:18:50;;;;;;;0.10;0.10;;;27.00;99.90;;;;;;5043501;28;20265;-84
2023/08/23 08:21:17;;;;;;;0.10;0.10;;;27.10;99.90;;;;;;5043163;28;20216;-83
2023/08/23 08:23:46;;;;;;;0.10;0.10;;;26.60;99.90;;;;;;5041425;28;21292;-84
2023/08/23 08:26:13;;;;;;;0.10;0.10;;;26.40;99.90;;;;;;5042545;28;20181;-84
2023/08/23 08:28:42;;;;;;;0.10;0.10;;;26.80;99.90;;;;;;5042321;28;20910;-84
2023/08/23 08:31:08;;;;;;;0.10;0.10;;;26.80;99.90;;;;;;5040544;28;20229;-84
2023/08/23 08:33:34;;;;;;;0.10;0.10;;;26.80;99.90;;;;;;5043589;28;20193;-83
2023/08/23 08:36:00;;;;;;;0.10;0.10;;;27.20;99.90;;;;;;5042385;28;20178;-84
2023/08/23 08:38:26;;;;;;;0.10;0.10;;;27.30;99.90;;;;;;5042462;28;20189;-84
2023/08/23 08:40:52;;;;;;;0.10;0.10;;;27.30;99.90;;;;;;5040441;28;20182;-83
2023/08/23 08:43:18;;;;;;;0.10;0.10;;;27.40;99.90;;;;;;5042606;28;20190;-84
2023/08/23 08:45:44;;;;;;;0.10;0.10;;;27.10;99.90;;;;;;5042838;28;20651;-83
2023/08/23 08:48:10;;;;;;;0.10;0.10;;;27.40;99.90;;;;;;5040695;28;20192;-83
2023/08/23 08:50:36;;;;;;;0.10;0.10;;;27.50;99.90;;;;;;5041022;28;20213;-83
2023/08/23 08:53:05;;;;;;;0.10;0.10;;;27.70;99.90;;;;;;5040840;28;20216;-83
2023/08/23 08:55:31;;;;;;;0.10;0.10;;;26.90;99.90;;;;;;5051056;28;20178;-83
2023/08/23 08:57:59;;;;;;;0.10;0.10;;;27.00;99.90;;;;;;5039876;28;20351;-84
2023/08/23 09:00:27;;;;;;;0.10;0.10;;;27.10;99.90;;;;;;5040378;28;20270;-83
2023/08/23 09:02:54;;;;;;;0.10;0.10;;;27.30;99.90;;;;;;5041088;28;20209;-83
2023/08/23 09:05:24;;;;;;;0.10;0.10;;;26.60;99.90;;;;;;5040987;28;20294;-83
2023/08/23 09:07:50;;;;;;;0.10;0.10;;;27.00;99.90;;;;;;5038162;28;20740;-83
2023/08/23 09:10:16;;;;;;;0.10;0.10;;;27.20;99.90;;;;;;5038882;28;20206;-83
2023/08/23 09:12:42;;;;;;;0.10;0.10;;;27.70;99.90;;;;;;5049239;28;20205;-83
2023/08/23 09:15:08;;;;;;;0.10;0.10;;;26.50;99.90;;;;;;5040762;28;20182;-83
2023/08/23 09:17:35;;;;;;;0.10;0.10;;;26.50;99.90;;;;;;5040897;28;20182;-83
2023/08/23 09:20:06;;;;;;;0.10;0.10;;;26.80;99.90;;;;;;5053405;28;20189;-84
2023/08/23 09:22:33;;;;;;;0.10;0.10;;;27.30;99.90;;;;;;5042078;28;20283;-83
2023/08/23 09:25:02;;;;;;;0.10;0.10;;;27.00;99.90;;;;;;5046882;28;20186;-83
2023/08/23 09:27:28;;;;;;;0.10;0.10;;;27.20;99.90;;;;;;5042964;28;20185;-84
2023/08/23 09:29:54;;;;;;;0.10;0.10;;;27.30;99.90;;;;;;5044007;28;20201;-85
2023/08/23 09:32:20;;;;;;;0.10;0.10;;;27.90;99.90;;;;;;5044758;28;20248;-84
2023/08/23 09:34:45;;;;;;;0.10;0.10;;;28.10;99.90;;;;;;5044820;28;20604;-83
2023/08/23 09:37:11;;;;;;;0.10;0.10;;;28.40;99.90;;;;;;5041999;28;20182;-83
2023/08/23 09:39:37;;;;;;;0.10;0.10;;;28.40;99.90;;;;;;5043599;28;20655;-83
2023/08/23 09:42:05;;;;;;;0.10;0.10;;;28.70;99.90;;;;;;5045164;28;20213;-83
2023/08/23 09:44:37;;;;;;;0.10;0.10;;;28.90;99.90;;;;;;5045814;28;20186;-84
2023/08/23 09:47:05;;;;;;;0.10;0.10;;;29.00;99.90;;;;;;5043175;28;20663;-83
2023/08/23 09:49:33;;;;;;;0.10;0.10;;;29.30;99.90;;;;;;5043546;28;20220;-84
2023/08/23 09:52:00;;;;;;;0.10;0.10;;;28.90;99.90;;;;;;5047305;28;20208;-83
2023/08/23 09:55:02;;;;;;;0.10;0.10;;;28.30;99.90;;;;;;5045653;28;20182;-84
2023/08/23 09:57:28;;;;;;;0.10;0.10;;;28.00;99.90;;;;;;5053189;28;20193;-83
2023/08/23 09:59:54;;;;;;;0.10;0.10;;;28.00;99.90;;;;;;5045271;28;20228;-82
2023/08/23 10:02:19;;;;;;;0.35;0.35;;;27.40;99.90;;;;;;5045913;28;20216;-82
2023/08/23 10:04:45;;;;;;;0.10;0.10;;;27.70;99.90;;;;;;5045071;28;20240;-82
2023/08/23 10:07:15;;;;;;;0.10;0.10;;;28.20;99.90;;;;;;5045227;28;20194;-82
2023/08/23 10:09:41;;;;;;;0.10;0.10;;;28.20;99.90;;;;;;5046847;28;20212;-83
2023/08/23 10:12:09;;;;;;;0.10;0.10;;;28.80;99.90;;;;;;5060933;28;20206;-83
2023/08/23 10:14:39;;;;;;;0.10;0.10;;;29.00;99.90;;;;;;5045251;28;20186;-83
2023/08/23 10:17:08;;;;;;;0.20;0.20;;;27.90;99.90;;;;;;5046431;28;20296;-83
2023/08/23 10:19:34;;;;;;;0.10;0.10;;;27.90;99.90;;;;;;5043878;28;20670;-83
2023/08/23 10:22:00;;;;;;;0.10;0.10;;;27.40;99.90;;;;;;5046385;28;20214;-82
2023/08/23 10:24:30;;;;;;;0.10;0.10;;;27.70;99.90;;;;;;5046017;28;20675;-82
2023/08/23 10:26:56;;;;;;;0.10;0.10;;;28.00;99.90;;;;;;5060364;28;20244;-84
2023/08/23 10:29:28;;;;;;;0.10;0.10;;;28.20;99.90;;;;;;5045799;28;20221;-83
2023/08/23 10:31:54;;;;;;;0.10;0.10;;;28.50;99.90;;;;;;5062167;28;20205;-83
2023/08/23 10:34:27;;;;;;;0.10;0.10;;;28.60;99.90;;;;;;5058142;28;20221;-82
2023/08/23 10:36:53;;;;;;;0.10;0.10;;;29.00;99.90;;;;;;5042575;28;20304;-82
2023/08/23 10:39:23;;;;;;;0.10;0.10;;;29.00;99.90;;;;;;5035036;28;20182;-82
2023/08/23 10:41:51;;;;;;;0.10;0.10;;;29.30;99.90;;;;;;5044744;28;20205;-82
2023/08/23 10:44:17;;;;;;;0.10;0.10;;;29.80;99.90;;;;;;5045299;28;20269;-82
2023/08/23 10:46:46;;;;;;;0.10;0.10;;;30.00;99.90;;;;;;5046326;28;20743;-81
2023/08/23 10:49:13;;;;;;;0.10;0.10;;;30.30;99.90;;;;;;5044823;28;20695;-82
2023/08/23 10:51:42;;;;;;;0.10;0.10;;;30.40;99.90;;;;;;5043842;28;20201;-81
2023/08/23 10:54:12;;;;;;;0.10;0.10;;;30.60;99.90;;;;;;5045647;28;20639;-82
2023/08/23 10:56:38;;;;;;;0.10;0.10;;;30.50;99.90;;;;;;5058677;28;20177;-81
2023/08/23 10:59:06;;;;;;;0.10;0.10;;;30.70;99.90;;;;;;5045278;28;20184;-81
2023/08/23 11:01:32;;;;;;;0.10;0.10;;;30.90;99.90;;;;;;5042765;28;20202;-82
2023/08/23 11:03:58;;;;;;;0.10;0.10;;;30.20;99.90;;;;;;5043791;28;20194;-82
2023/08/23 11:06:24;;;;;;;0.10;0.10;;;30.50;99.90;;;;;;5046867;28;20181;-82
2023/08/23 11:08:51;;;;;;;0.10;0.10;;;29.20;99.90;;;;;;5035373;28;20207;-82
2023/08/23 11:11:16;;;;;;;0.10;0.10;;;29.10;99.90;;;;;;5044520;28;20206;-81
2023/08/23 11:13:42;;;;;;;0.10;0.10;;;29.30;99.90;;;;;;5042783;28;20182;-82
2023/08/23 11:16:08;;;;;;;0.10;0.10;;;29.40;99.90;;;;;;5047869;28;20674;-81
2023/08/23 11:18:35;;;;;;;0.10;0.10;;;29.80;99.90;;;;;;5047995;28;20235;-81
2023/08/23 11:21:01;;;;;;;0.10;0.10;;;29.90;99.90;;;;;;5064236;28;20208;-81
2023/08/23 11:23:26;;;;;;;0.10;0.10;;;30.50;99.90;;;;;;5047850;28;20690;-81
2023/08/23 11:25:53;;;;;;;0.10;0.10;;;30.60;99.90;;;;;;5048756;28;20260;-82
2023/08/23 11:28:18;;;;;;;0.10;0.10;;;30.50;99.90;;;;;;5048649;28;21026;-81
2023/08/23 11:30:44;;;;;;;0.10;0.10;;;30.60;99.90;;;;;;5046133;28;20210;-81
2023/08/23 11:33:10;;;;;;;0.10;0.10;;;30.50;99.90;;;;;;5063029;28;20206;-82
2023/08/23 11:35:36;;;;;;;0.10;0.10;;;30.90;99.90;;;;;;5046621;28;20562;-81
2023/08/23 11:38:04;;;;;;;0.10;0.10;;;31.10;99.90;;;;;;5043567;28;20193;-82
2023/08/23 11:40:32;;;;;;;0.10;0.10;;;31.10;99.90;;;;;;5042745;28;20327;-82
2023/08/23 11:42:58;;;;;;;0.10;0.10;;;31.40;99.90;;;;;;5044150;28;20213;-82
2023/08/23 11:45:23;;;;;;;0.10;0.10;;;31.40;99.90;;;;;;5044218;28;20178;-81
2023/08/23 11:47:54;;;;;;;0.10;0.10;;;31.30;99.90;;;;;;5043518;28;20264;-82
2023/08/23 11:50:20;;;;;;;0.10;0.10;;;31.20;99.90;;;;;;5052278;28;20299;-82
2023/08/23 11:52:48;;;;;;;0.10;0.10;;;31.20;99.90;;;;;;5059912;28;20612;-81
2023/08/23 11:55:21;;;;;;;0.10;0.10;;;31.20;99.90;;;;;;5043045;28;20178;-81
2023/08/23 11:57:56;;;;;;;0.10;0.10;;;31.20;99.90;;;;;;5044249;28;20166;-82
2023/08/23 12:00:22;;;;;;;0.10;0.10;;;31.30;99.90;;;;;;5037467;28;20188;-82
2023/08/23 12:02:48;;;;;;;0.10;0.10;;;31.30;99.90;;;;;;5043453;28;20216;-82
2023/08/23 12:05:15;;;;;;;0.10;0.10;;;31.20;99.90;;;;;;5043565;28;20174;-82
2023/08/23 12:07:40;;;;;;;0.10;0.10;;;31.10;99.90;;;;;;5034965;28;20198;-82
2023/08/23 12:10:09;;;;;;;0.10;0.10;;;31.40;99.90;;;;;;5041786;28;20832;-82
2023/08/23 12:12:36;;;;;;;0.10;0.10;;;31.50;99.90;;;;;;5042082;28;20713;-81
2023/08/23 12:15:01;;;;;;;0.10;0.10;;;31.30;99.90;;;;;;5049542;28;20186;-81
2023/08/23 12:17:28;;;;;;;0.10;0.10;;;31.20;99.90;;;;;;5041625;28;20189;-82
2023/08/23 12:19:54;;;;;;;0.10;0.10;;;31.20;99.90;;;;;;5042121;28;20193;-81
2023/08/23 12:22:19;;;;;;;0.10;0.10;;;31.20;99.90;;;;;;5044091;28;20679;-82
2023/08/23 12:24:44;;;;;;;0.10;0.10;;;31.20;99.90;;;;;;5044222;28;20186;-82
2023/08/23 12:27:10;;;;;;;0.10;0.10;;;31.40;99.90;;;;;;5043072;28;20212;-81
2023/08/23 12:29:37;;;;;;;0.10;0.10;;;31.50;99.90;;;;;;5042879;28;20213;-82
2023/08/23 12:32:06;;;;;;;0.10;0.10;;;31.80;99.90;;;;;;5041192;28;20278;-82
2023/08/23 12:34:32;;;;;;;0.10;0.10;;;31.80;99.90;;;;;;5041758;28;20178;-83
2023/08/23 12:36:57;;;;;;;0.10;0.10;;;32.00;99.90;;;;;;5040563;28;20632;-82
2023/08/23 12:39:23;;;;;;;0.10;0.10;;;31.70;99.90;;;;;;5040664;28;20189;-82
2023/08/23 12:41:49;;;;;;;0.10;0.10;;;31.80;99.90;;;;;;5040163;28;20208;-82
2023/08/23 12:44:14;;;;;;;0.10;0.10;;;31.70;99.90;;;;;;5043516;28;20197;-82
2023/08/23 12:46:40;;;;;;;0.10;0.10;;;31.80;99.90;;;;;;5062618;28;20242;-81
2023/08/23 12:49:12;;;;;;;0.10;0.10;;;32.00;99.90;;;;;;5043495;28;20182;-82
2023/08/23 12:51:38;;;;;;;0.10;0.10;;;31.40;99.90;;;;;;5045967;28;20210;-82
2023/08/23 12:54:04;;;;;;;0.15;0.15;;;31.60;99.90;;;;;;5056442;28;20189;-82
2023/08/23 12:56:29;;;;;;;0.10;0.10;;;31.70;99.90;;;;;;5049364;28;20185;-82
2023/08/23 12:58:55;;;;;;;0.10;0.10;;;31.80;99.90;;;;;;5052840;28;20272;-82
2023/08/23 13:01:21;;;;;;;0.10;0.10;;;31.80;99.90;;;;;;5056967;28;20213;-82
2023/08/23 13:03:46;;;;;;;0.10;0.10;;;31.40;99.90;;;;;;5054765;28;20517;-82